createdAt,value
2023-05-19T00:01:44.948Z,92.68
2023-05-19T00:04:47.242Z,92.12
2023-05-19T00:07:51.425Z,92.60
2023-05-19T00:10:53.571Z,93.21
2023-05-19T00:13:56.408Z,93.68
2023-05-19T00:17:00.061Z,92.96
2023-05-19T00:20:01.922Z,94.32
2023-05-19T00:23:03.621Z,93.44
2023-05-19T00:26:05.356Z,94.13
2023-05-19T00:29:07.121Z,93.51
2023-05-19T00:32:10.215Z,93.58
2023-05-19T00:35:12.357Z,92.96
2023-05-19T00:38:14.062Z,94.39
2023-05-19T00:41:15.793Z,93.59
2023-05-19T00:44:19.737Z,93.83
2023-05-19T00:47:22.773Z,93.44
2023-05-19T00:50:24.470Z,94.31
2023-05-19T00:53:26.180Z,94.51
2023-05-19T00:56:28.240Z,94.50
2023-05-19T00:59:30.232Z,94.60
2023-05-19T01:02:33.458Z,94.55
2023-05-19T01:05:35.933Z,95.08
2023-05-19T01:08:38.466Z,95.06
2023-05-19T01:11:40.153Z,95.62
2023-05-19T01:14:42.424Z,96.04
2023-05-19T01:17:53.448Z,96.12
2023-05-19T01:21:23.247Z,96.44
2023-05-19T01:24:45.213Z,96.79
2023-05-19T01:28:10.320Z,96.28
2023-05-19T01:31:15.406Z,96.34
2023-05-19T01:34:19.533Z,96.86
2023-05-19T01:37:21.652Z,96.82
2023-05-19T01:40:24.648Z,96.80
2023-05-19T01:43:27.332Z,96.70
2023-05-19T01:46:30.434Z,96.69
2023-05-19T01:49:32.124Z,96.96
2023-05-19T01:52:33.950Z,97.61
2023-05-19T01:55:36.762Z,96.95
2023-05-19T01:58:45.159Z,96.84
2023-05-19T02:01:53.279Z,97.01
2023-05-19T02:05:00.005Z,96.66
2023-05-19T02:08:11.441Z,96.99
2023-05-19T02:11:19.586Z,96.01
2023-05-19T02:14:29.019Z,96.68
2023-05-19T02:17:35.939Z,95.23
2023-05-19T02:20:37.794Z,94.98
2023-05-19T02:23:39.911Z,93.99
2023-05-19T02:26:41.543Z,94.65
2023-05-19T02:29:43.255Z,94.12
2023-05-19T02:32:46.347Z,94.19
2023-05-19T02:35:48.009Z,93.72
2023-05-19T02:38:49.697Z,94.51
2023-05-19T02:41:51.618Z,94.04
2023-05-19T02:44:54.735Z,93.51
2023-05-19T02:47:59.175Z,94.12
2023-05-19T02:51:00.820Z,95.05
2023-05-19T02:54:02.507Z,95.35
2023-05-19T02:57:04.594Z,94.84
2023-05-19T03:00:07.719Z,94.85
2023-05-19T03:03:10.905Z,94.67
2023-05-19T03:06:12.988Z,94.89
2023-05-19T03:09:14.660Z,95.38
2023-05-19T03:12:16.333Z,94.73
2023-05-19T03:15:18.011Z,95.61
2023-05-19T03:18:21.039Z,94.49
2023-05-19T03:21:23.107Z,94.97
2023-05-19T03:24:29.710Z,95.21
2023-05-19T03:27:31.368Z,95.85
2023-05-19T03:30:33.293Z,94.97
2023-05-19T03:33:36.870Z,94.60
2023-05-19T03:36:38.603Z,95.42
2023-05-19T03:39:40.309Z,94.63
2023-05-19T03:42:41.940Z,94.26
2023-05-19T03:45:43.705Z,93.13
2023-05-19T03:48:46.727Z,93.13
2023-05-19T03:51:48.380Z,92.65
2023-05-19T03:54:50.056Z,94.12
2023-05-19T03:57:51.786Z,94.70
2023-05-19T04:00:53.436Z,91.99
2023-05-19T04:03:56.586Z,92.26
2023-05-19T04:06:58.374Z,92.07
2023-05-19T04:10:00.261Z,91.12
2023-05-19T04:13:02.260Z,91.13
2023-05-19T04:16:04.583Z,90.12
2023-05-19T04:19:07.975Z,88.56
2023-05-19T04:22:09.621Z,89.07
2023-05-19T04:25:11.233Z,90.34
2023-05-19T04:28:12.908Z,88.09
2023-05-19T04:31:14.886Z,88.31
2023-05-19T04:34:17.988Z,86.66
2023-05-19T04:37:19.822Z,87.65
2023-05-19T04:40:21.567Z,87.58
2023-05-19T04:43:23.219Z,85.93
2023-05-19T04:46:24.906Z,86.09
2023-05-19T04:49:27.970Z,85.63
2023-05-19T04:52:29.697Z,86.86
2023-05-19T04:55:31.437Z,87.57
2023-05-19T04:58:33.150Z,88.45
2023-05-19T05:01:34.864Z,88.14
2023-05-19T05:04:38.165Z,86.15
2023-05-19T05:07:39.841Z,87.37
2023-05-19T05:10:41.671Z,85.38
2023-05-19T05:13:44.060Z,86.08
2023-05-19T05:16:46.462Z,84.74
2023-05-19T05:19:50.348Z,85.45
2023-05-19T05:22:52.509Z,85.61
2023-05-19T05:25:54.683Z,86.53
2023-05-19T05:28:56.391Z,85.61
2023-05-19T05:31:58.349Z,86.32
2023-05-19T05:35:01.552Z,84.75
2023-05-19T05:38:03.744Z,85.11
2023-05-19T05:41:05.480Z,84.53
2023-05-19T05:44:07.531Z,82.18
2023-05-19T05:47:09.962Z,80.50
2023-05-19T05:50:14.341Z,81.55
2023-05-19T05:53:19.086Z,82.27
2023-05-19T05:56:21.693Z,81.48
2023-05-19T05:59:23.406Z,80.87
2023-05-19T06:02:25.527Z,81.55
2023-05-19T06:05:28.976Z,84.12
2023-05-19T06:08:30.701Z,82.33
2023-05-19T06:11:32.723Z,83.24
2023-05-19T06:14:34.631Z,84.26
2023-05-19T06:17:36.609Z,85.91
2023-05-19T06:20:39.730Z,84.59
2023-05-19T06:23:41.434Z,82.79
2023-05-19T06:26:43.180Z,84.25
2023-05-19T06:29:44.893Z,84.66
2023-05-19T06:32:46.598Z,81.22
2023-05-19T06:35:49.701Z,80.26
2023-05-19T06:38:51.436Z,80.20
2023-05-19T06:41:53.399Z,81.35
2023-05-19T06:44:55.820Z,81.30
2023-05-19T06:47:57.600Z,80.46
2023-05-19T06:51:00.691Z,80.52
2023-05-19T06:54:02.421Z,82.09
2023-05-19T06:57:04.321Z,80.16
2023-05-19T07:00:07.727Z,77.98
2023-05-19T07:03:09.348Z,79.34
2023-05-19T07:06:12.583Z,79.92
2023-05-19T07:09:14.276Z,78.99
2023-05-19T07:12:16.428Z,78.97
2023-05-19T07:15:18.326Z,78.72
2023-05-19T07:18:20.039Z,78.89
2023-05-19T07:21:23.387Z,78.10
2023-05-19T07:24:24.848Z,78.43
2023-05-19T07:27:26.728Z,78.19
2023-05-19T07:30:28.928Z,76.63
2023-05-19T07:33:30.834Z,78.77
2023-05-19T07:36:33.860Z,76.77
2023-05-19T07:39:36.223Z,75.75
2023-05-19T07:42:37.890Z,75.50
2023-05-19T07:45:39.909Z,76.57
2023-05-19T07:48:41.580Z,76.68
2023-05-19T07:51:44.632Z,75.32
2023-05-19T07:54:46.591Z,75.71
2023-05-19T07:57:48.342Z,75.09
2023-05-19T08:00:50.006Z,74.22
2023-05-19T08:03:51.697Z,73.83
2023-05-19T08:06:54.764Z,74.42
2023-05-19T08:09:56.418Z,74.38
2023-05-19T08:12:58.218Z,73.56
2023-05-19T08:16:00.353Z,73.70
2023-05-19T08:19:02.200Z,73.54
2023-05-19T08:22:05.316Z,72.97
2023-05-19T08:25:07.246Z,72.82
2023-05-19T08:28:09.058Z,74.32
2023-05-19T08:31:10.959Z,75.62
2023-05-19T08:34:12.700Z,74.20
2023-05-19T08:37:15.806Z,73.60
2023-05-19T08:40:18.521Z,72.23
2023-05-19T08:43:20.498Z,72.37
2023-05-19T08:46:24.936Z,72.30
2023-05-19T08:49:27.715Z,72.12
2023-05-19T08:52:35.642Z,72.79
2023-05-19T08:55:43.988Z,70.17
2023-05-19T08:58:47.214Z,69.55
2023-05-19T09:01:48.794Z,70.29
2023-05-19T09:04:50.403Z,69.50
2023-05-19T09:07:53.596Z,68.68
2023-05-19T09:10:55.742Z,68.45
2023-05-19T09:13:57.733Z,68.05
2023-05-19T09:16:59.546Z,67.50
2023-05-19T09:20:01.746Z,68.46
2023-05-19T09:23:05.653Z,67.30
2023-05-19T09:26:07.691Z,67.12
2023-05-19T09:29:13.825Z,66.63
2023-05-19T09:32:24.855Z,65.93
2023-05-19T09:35:26.718Z,66.43
2023-05-19T09:38:29.828Z,65.87
2023-05-19T09:41:31.614Z,66.87
2023-05-19T09:44:35.310Z,64.21
2023-05-19T09:47:37.695Z,63.22
2023-05-19T09:50:39.865Z,64.13
2023-05-19T09:53:46.883Z,64.59
2023-05-19T09:56:52.188Z,63.62
2023-05-19T09:59:55.560Z,64.29
2023-05-19T10:02:58.525Z,66.49
2023-05-19T10:06:01.156Z,64.73
2023-05-19T10:09:04.381Z,63.00
2023-05-19T10:12:06.819Z,63.11
2023-05-19T10:15:10.850Z,64.49
2023-05-19T10:18:15.819Z,66.29
2023-05-19T10:21:18.302Z,66.32
2023-05-19T10:24:21.753Z,64.97
2023-05-19T10:27:23.738Z,63.94
2023-05-19T10:30:29.326Z,64.81
2023-05-19T10:33:47.198Z,64.62
2023-05-19T10:39:59.987Z,66.13
2023-05-19T10:43:18.067Z,64.65
2023-05-19T10:46:24.025Z,63.05
2023-05-19T10:49:26.289Z,61.86
2023-05-19T10:52:30.096Z,61.50
2023-05-19T10:55:51.031Z,59.89
2023-05-19T10:58:52.664Z,61.80
2023-05-19T11:01:54.354Z,61.44
2023-05-19T11:05:07.490Z,60.68
2023-05-19T11:08:09.356Z,59.91
2023-05-19T11:11:17.462Z,60.84
2023-05-19T11:14:21.301Z,60.53
2023-05-19T11:17:25.191Z,61.46
2023-05-19T11:20:28.846Z,60.68
2023-05-19T11:23:35.440Z,58.03
2023-05-19T11:26:42.408Z,58.99
2023-05-19T11:29:44.171Z,60.02
2023-05-19T11:32:48.200Z,59.80
2023-05-19T11:35:51.030Z,58.35
2023-05-19T11:38:53.253Z,58.69
2023-05-19T11:41:56.934Z,59.02
2023-05-19T11:44:58.866Z,58.14
2023-05-19T11:48:03.014Z,56.25
2023-05-19T11:51:06.679Z,57.87
2023-05-19T11:54:08.395Z,54.08
2023-05-19T11:57:11.384Z,53.69
2023-05-19T12:00:13.936Z,52.89
2023-05-19T12:03:16.197Z,53.34
2023-05-19T12:06:18.116Z,54.13
2023-05-19T12:09:23.013Z,54.18
2023-05-19T12:12:26.040Z,54.60
2023-05-19T12:15:27.841Z,55.29
2023-05-19T12:18:30.354Z,54.52
2023-05-19T12:21:34.031Z,54.49
2023-05-19T12:24:37.657Z,54.76
2023-05-19T12:27:43.293Z,54.59
2023-05-19T12:30:48.043Z,53.64
2023-05-19T12:33:50.204Z,53.88
2023-05-19T12:36:51.872Z,54.64
2023-05-19T12:39:55.455Z,55.02
2023-05-19T12:42:58.471Z,54.57
2023-05-19T12:46:08.935Z,52.99
2023-05-19T12:49:10.653Z,51.91
2023-05-19T12:52:13.720Z,51.70
2023-05-19T12:55:15.594Z,50.93
2023-05-19T12:58:19.132Z,49.21
2023-05-19T13:01:22.501Z,49.13
2023-05-19T13:04:24.499Z,51.59
2023-05-19T13:07:26.251Z,50.35
2023-05-19T13:10:28.772Z,50.00
2023-05-19T13:13:31.806Z,50.31
2023-05-19T13:16:33.340Z,50.43
2023-05-19T13:19:35.405Z,51.16
2023-05-19T13:22:37.106Z,51.47
2023-05-19T13:25:39.354Z,51.84
2023-05-19T13:28:42.354Z,52.27
2023-05-19T13:31:43.881Z,50.64
2023-05-19T13:34:45.618Z,51.40
2023-05-19T13:37:47.317Z,51.32
2023-05-19T13:40:49.001Z,52.50
2023-05-19T13:43:52.147Z,51.14
2023-05-19T13:46:54.073Z,51.05
2023-05-19T13:49:55.927Z,51.23
2023-05-19T13:52:57.870Z,48.95
2023-05-19T13:56:00.757Z,51.41
2023-05-19T13:59:03.952Z,49.12
2023-05-19T14:02:06.426Z,49.07
2023-05-19T14:05:08.720Z,49.34
2023-05-19T14:08:10.394Z,49.33
2023-05-19T14:11:17.857Z,49.57
2023-05-19T14:14:21.240Z,49.95
2023-05-19T14:17:23.029Z,49.39
2023-05-19T14:20:25.878Z,50.06
2023-05-19T14:23:28.724Z,49.66
2023-05-19T14:26:30.411Z,50.27
2023-05-19T14:29:33.588Z,49.52
2023-05-19T14:32:35.526Z,49.71
2023-05-19T14:35:37.315Z,48.20
2023-05-19T14:38:38.977Z,48.28
2023-05-19T14:41:40.690Z,48.26
2023-05-19T14:44:44.011Z,49.81
2023-05-19T14:47:47.096Z,50.01
2023-05-19T14:50:49.555Z,49.42
2023-05-19T14:53:51.465Z,49.68
2023-05-19T14:56:53.130Z,50.32
2023-05-19T14:59:56.168Z,49.13
2023-05-19T15:02:57.902Z,49.53
2023-05-19T15:05:59.836Z,49.83
2023-05-19T15:09:01.702Z,50.61
2023-05-19T15:12:03.784Z,51.40
2023-05-19T15:15:08.422Z,51.50
2023-05-19T15:18:10.162Z,50.00
2023-05-19T15:21:12.088Z,50.40
2023-05-19T15:24:16.008Z,50.83
2023-05-19T15:27:18.010Z,51.54
2023-05-19T15:30:21.185Z,50.94
2023-05-19T15:33:22.826Z,51.79
2023-05-19T15:36:24.719Z,52.81
2023-05-19T15:39:26.335Z,51.45
2023-05-19T15:42:28.249Z,51.01
2023-05-19T15:45:31.537Z,51.59
2023-05-19T15:48:33.272Z,51.57
2023-05-19T15:51:35.100Z,51.89
2023-05-19T15:54:36.737Z,52.10
2023-05-19T15:57:38.409Z,53.58
2023-05-19T16:00:41.967Z,54.00
2023-05-19T16:03:44.434Z,54.39
2023-05-19T16:06:46.400Z,54.15
2023-05-19T16:09:48.034Z,53.70
2023-05-19T16:12:49.759Z,54.25
2023-05-19T16:15:52.966Z,54.70
2023-05-19T16:18:54.702Z,55.01
2023-05-19T16:21:56.374Z,55.61
2023-05-19T16:24:58.274Z,56.01
2023-05-19T16:27:59.976Z,54.89
2023-05-19T16:31:03.036Z,55.05
2023-05-19T16:34:04.726Z,56.06
2023-05-19T16:37:06.442Z,54.81
2023-05-19T16:40:09.017Z,55.93
2023-05-19T16:43:10.903Z,56.34
2023-05-19T16:46:13.943Z,57.23
2023-05-19T16:49:15.429Z,56.94
2023-05-19T16:52:17.127Z,57.04
2023-05-19T16:55:21.917Z,57.00
2023-05-19T16:58:23.606Z,57.25
2023-05-19T17:01:26.770Z,56.86
2023-05-19T17:04:30.654Z,57.46
2023-05-19T17:07:32.531Z,57.87
2023-05-19T17:10:34.548Z,58.36
2023-05-19T17:13:36.554Z,59.03
2023-05-19T17:16:39.941Z,59.02
2023-05-19T17:19:41.606Z,59.49
2023-05-19T17:22:43.698Z,59.59
2023-05-19T17:25:45.473Z,60.15
2023-05-19T17:28:47.181Z,60.88
2023-05-19T17:31:50.271Z,61.76
2023-05-19T17:34:51.764Z,62.87
2023-05-19T17:37:53.258Z,62.62
2023-05-19T17:40:57.668Z,63.43
2023-05-19T17:43:59.578Z,65.96
2023-05-19T17:47:02.830Z,65.80
2023-05-19T17:50:05.357Z,67.08
2023-05-19T17:53:07.547Z,67.53
2023-05-19T17:56:11.733Z,68.05
2023-05-19T17:59:13.692Z,69.25
2023-05-19T18:02:18.373Z,69.90
2023-05-19T18:05:21.295Z,70.70
2023-05-19T18:08:23.598Z,71.47
2023-05-19T18:11:25.805Z,72.82
2023-05-19T18:14:28.608Z,74.06
2023-05-19T18:17:31.780Z,74.68
2023-05-19T18:20:34.454Z,74.84
2023-05-19T18:23:36.402Z,76.20
2023-05-19T18:26:38.178Z,76.54
2023-05-19T18:29:39.924Z,77.64
2023-05-19T18:32:43.269Z,77.61
2023-05-19T18:35:46.314Z,78.37
2023-05-19T18:38:48.428Z,78.91
2023-05-19T18:41:50.324Z,79.99
2023-05-19T18:44:52.038Z,79.91
2023-05-19T18:47:55.146Z,80.64
2023-05-19T18:50:56.847Z,80.76
2023-05-19T18:53:58.629Z,81.91
2023-05-19T18:57:00.736Z,81.84
2023-05-19T19:00:02.411Z,81.36
2023-05-19T19:03:05.787Z,80.64
2023-05-19T19:06:07.864Z,80.26
2023-05-19T19:09:09.764Z,79.93
2023-05-19T19:12:11.456Z,79.58
2023-05-19T19:15:13.243Z,79.62
2023-05-19T19:18:16.293Z,79.77
2023-05-19T19:21:17.972Z,80.05
2023-05-19T19:24:19.973Z,79.86
2023-05-19T19:27:22.352Z,79.60
2023-05-19T19:30:24.105Z,79.64
2023-05-19T19:33:27.193Z,79.57
2023-05-19T19:36:28.969Z,79.36
2023-05-19T19:39:31.131Z,80.09
2023-05-19T19:42:32.896Z,78.91
2023-05-19T19:45:34.903Z,78.71
2023-05-19T19:48:38.134Z,78.35
2023-05-19T19:51:39.740Z,78.32
2023-05-19T19:54:41.442Z,79.72
2023-05-19T19:57:43.138Z,78.98
2023-05-19T20:00:45.062Z,78.54
2023-05-19T20:03:48.449Z,78.62
2023-05-19T20:06:50.480Z,77.94
2023-05-19T20:09:52.276Z,77.90
2023-05-19T20:12:53.941Z,77.83
2023-05-19T20:15:55.642Z,78.45
2023-05-19T20:18:59.071Z,80.20
2023-05-19T20:22:00.891Z,79.14
2023-05-19T20:25:02.526Z,79.22
2023-05-19T20:28:04.567Z,79.44
2023-05-19T20:31:06.529Z,78.70
2023-05-19T20:34:09.584Z,78.95
2023-05-19T20:37:11.542Z,78.72
2023-05-19T20:40:13.266Z,79.15
2023-05-19T20:43:15.184Z,79.25
2023-05-19T20:46:17.205Z,79.20
2023-05-19T20:49:20.369Z,79.49
2023-05-19T20:52:22.094Z,79.63
2023-05-19T20:55:23.757Z,79.75
2023-05-19T20:58:25.466Z,79.68
2023-05-19T21:01:27.269Z,79.78
2023-05-19T21:04:30.463Z,79.87
2023-05-19T21:07:31.939Z,80.60
2023-05-19T21:10:33.667Z,81.58
2023-05-19T21:13:35.492Z,82.42
2023-05-19T21:16:37.184Z,82.44
2023-05-19T21:19:40.215Z,84.17
2023-05-19T21:22:42.086Z,84.44
2023-05-19T21:25:45.417Z,84.08
2023-05-19T21:28:47.301Z,83.66
2023-05-19T21:31:49.176Z,83.71
2023-05-19T21:34:52.200Z,83.72
2023-05-19T21:37:53.887Z,82.74
2023-05-19T21:40:55.663Z,82.74
2023-05-19T21:43:57.308Z,82.45
2023-05-19T21:46:59.097Z,82.11
2023-05-19T21:50:02.371Z,81.21
2023-05-19T21:53:04.190Z,80.80
2023-05-19T21:56:06.004Z,80.19
2023-05-19T21:59:08.246Z,80.25
2023-05-19T22:02:09.993Z,79.56
2023-05-19T22:05:13.154Z,78.47
2023-05-19T22:08:15.187Z,78.43
2023-05-19T22:11:16.837Z,77.82
2023-05-19T22:14:18.568Z,77.06
2023-05-19T22:17:20.242Z,77.30
2023-05-19T22:20:23.305Z,77.66
2023-05-19T22:23:25.162Z,78.39
2023-05-19T22:26:26.863Z,79.29
2023-05-19T22:29:28.533Z,79.39
2023-05-19T22:32:30.471Z,79.67
2023-05-19T22:35:33.826Z,79.85
2023-05-19T22:38:35.767Z,80.57
2023-05-19T22:41:37.438Z,80.99
2023-05-19T22:44:39.324Z,81.74
2023-05-19T22:47:41.022Z,82.17
2023-05-19T22:50:44.091Z,83.46
2023-05-19T22:53:45.931Z,83.55
2023-05-19T22:56:47.866Z,83.95
2023-05-19T22:59:49.805Z,84.23
2023-05-19T23:02:51.622Z,84.53
2023-05-19T23:05:54.934Z,84.71
2023-05-19T23:09:00.760Z,84.84
2023-05-19T23:12:02.451Z,85.28
2023-05-19T23:15:04.944Z,85.49
2023-05-19T23:18:06.868Z,85.37
2023-05-19T23:21:09.976Z,85.42
2023-05-19T23:24:11.921Z,85.91
2023-05-19T23:27:13.616Z,86.14
2023-05-19T23:30:15.329Z,86.41
2023-05-19T23:33:17.209Z,86.55
2023-05-19T23:36:20.240Z,86.46
2023-05-19T23:39:22.152Z,86.98
2023-05-19T23:42:23.794Z,86.61
2023-05-19T23:45:25.804Z,87.18
2023-05-19T23:48:28.326Z,87.50
2023-05-19T23:51:31.678Z,87.55
2023-05-19T23:54:33.623Z,87.44
2023-05-19T23:57:35.571Z,87.79
